createdAt,value
2022-12-13T00:00:56.473Z,100.97
2022-12-13T00:01:58.652Z,97.75
2022-12-13T00:03:00.224Z,85.30
2022-12-13T00:04:05.106Z,83.15
2022-12-13T00:05:08.997Z,85.55
2022-12-13T00:06:11.805Z,94.32
2022-12-13T00:07:13.296Z,84.43
2022-12-13T00:08:17.776Z,92.10
2022-12-13T00:09:20.030Z,88.70
2022-12-13T00:10:21.582Z,93.03
2022-12-13T00:11:23.317Z,94.68
2022-12-13T00:12:24.843Z,97.93
2022-12-13T00:13:26.333Z,93.45
2022-12-13T00:14:27.822Z,74.47
2022-12-13T00:15:29.310Z,86.57
2022-12-13T00:16:32.733Z,85.20
2022-12-13T00:17:34.228Z,85.07
2022-12-13T00:18:35.827Z,87.75
2022-12-13T00:19:37.492Z,73.93
2022-12-13T00:20:41.005Z,67.20
2022-12-13T00:21:42.513Z,84.03
2022-12-13T00:22:43.974Z,67.05
2022-12-13T00:23:46.624Z,79.13
2022-12-13T00:24:48.124Z,64.28
2022-12-13T00:25:49.994Z,79.35
2022-12-13T00:26:54.637Z,65.93
2022-12-13T00:27:56.124Z,73.55
2022-12-13T00:28:59.337Z,76.20
2022-12-13T00:30:00.840Z,66.35
2022-12-13T00:31:26.946Z,34.42
2022-12-13T00:32:24.323Z,45.50
2022-12-13T00:33:26.009Z,47.55
2022-12-13T00:34:33.448Z,48.58
2022-12-13T00:35:41.206Z,42.95
2022-12-13T00:36:42.731Z,50.10
2022-12-13T00:37:44.212Z,64.40
2022-12-13T00:38:46.099Z,54.10
2022-12-13T00:39:47.633Z,43.95
2022-12-13T00:40:49.190Z,57.53
2022-12-13T00:41:50.964Z,64.88
2022-12-13T00:43:01.473Z,71.13
2022-12-13T00:44:04.149Z,54.88
2022-12-13T00:45:06.469Z,51.42
2022-12-13T00:46:12.453Z,57.92
2022-12-13T00:47:14.006Z,54.13
2022-12-13T00:48:15.527Z,59.60
2022-12-13T00:49:17.134Z,55.67
2022-12-13T00:50:18.658Z,62.20
2022-12-13T00:51:22.218Z,40.70
2022-12-13T00:52:23.731Z,38.83
2022-12-13T00:53:25.227Z,26.63
2022-12-13T00:54:26.706Z,25.75
2022-12-13T00:55:28.243Z,27.50
2022-12-13T00:56:31.974Z,38.33
2022-12-13T00:57:33.495Z,50.30
2022-12-13T00:58:35.285Z,36.75
2022-12-13T00:59:36.764Z,38.53
2022-12-13T01:00:38.248Z,30.98
2022-12-13T01:01:39.814Z,28.67
2022-12-13T01:02:41.416Z,36.83
2022-12-13T01:03:46.024Z,35.92
2022-12-13T01:04:49.677Z,38.92
2022-12-13T01:06:14.143Z,27.10
2022-12-13T01:07:14.303Z,26.58
2022-12-13T01:08:15.863Z,25.63
2022-12-13T01:09:19.880Z,26.05
2022-12-13T01:10:21.408Z,25.92
2022-12-13T01:11:23.041Z,25.90
2022-12-13T01:12:24.621Z,21.08
2022-12-13T01:13:26.095Z,25.63
2022-12-13T01:14:28.403Z,24.17
2022-12-13T01:15:29.899Z,25.20
2022-12-13T01:16:31.511Z,23.58
2022-12-13T01:17:34.507Z,21.67
2022-12-13T01:18:36.680Z,22.25
2022-12-13T01:19:38.164Z,23.83
2022-12-13T01:20:40.248Z,24.60
2022-12-13T01:21:41.739Z,24.17
2022-12-13T01:22:44.556Z,25.15
2022-12-13T01:23:46.078Z,26.58
2022-12-13T01:24:47.629Z,25.48
2022-12-13T01:25:49.123Z,25.42
2022-12-13T01:26:50.881Z,24.58
2022-12-13T01:27:52.424Z,23.35
2022-12-13T01:28:53.911Z,22.65
2022-12-13T01:29:55.380Z,21.10
2022-12-13T01:30:57.688Z,21.65
2022-12-13T01:31:59.232Z,20.77
2022-12-13T01:33:00.731Z,21.80
2022-12-13T01:34:02.205Z,25.25
2022-12-13T01:35:04.003Z,23.63
2022-12-13T01:36:08.621Z,27.92
2022-12-13T01:37:10.075Z,55.90
2022-12-13T01:38:15.770Z,27.48
2022-12-13T01:39:19.613Z,60.65
2022-12-13T01:40:27.945Z,34.45
2022-12-13T01:41:30.182Z,25.33
2022-12-13T01:42:31.718Z,65.65
2022-12-13T01:43:55.909Z,31.13
2022-12-13T01:45:01.238Z,33.22
2022-12-13T01:46:02.866Z,22.50
2022-12-13T01:47:04.463Z,21.38
2022-12-13T01:48:09.601Z,22.08
2022-12-13T01:49:19.278Z,23.38
2022-12-13T01:50:26.448Z,23.58
2022-12-13T01:51:32.364Z,22.48
2022-12-13T01:52:34.404Z,21.73
2022-12-13T01:53:40.574Z,22.38
2022-12-13T01:54:47.029Z,21.73
2022-12-13T01:55:53.279Z,22.75
2022-12-13T01:57:00.562Z,19.20
2022-12-13T01:58:05.028Z,21.23
2022-12-13T01:59:08.724Z,21.55
2022-12-13T02:00:11.473Z,20.08
2022-12-13T02:01:13.123Z,22.65
2022-12-13T02:02:16.083Z,21.92
2022-12-13T02:03:21.969Z,23.52
2022-12-13T02:04:30.421Z,22.58
2022-12-13T02:05:36.227Z,20.98
2022-12-13T02:06:40.954Z,16.33
2022-12-13T02:07:44.974Z,17.23
2022-12-13T02:08:49.414Z,20.00
2022-12-13T02:09:56.281Z,15.02
2022-12-13T02:10:58.984Z,14.70
2022-12-13T02:12:00.907Z,17.23
2022-12-13T02:13:03.706Z,15.77
2022-12-13T02:14:05.581Z,17.02
2022-12-13T02:15:11.268Z,18.50
2022-12-13T02:16:23.990Z,20.88
2022-12-13T02:17:35.545Z,20.70
2022-12-13T02:18:58.074Z,19.80
2022-12-13T02:20:32.369Z,18.65
2022-12-13T02:21:47.381Z,18.67
2022-12-13T02:23:07.211Z,15.93
2022-12-13T02:24:36.317Z,18.02
2022-12-13T02:26:02.191Z,18.45
2022-12-13T02:27:13.344Z,16.08
2022-12-13T02:28:40.384Z,18.35
2022-12-13T02:30:21.047Z,14.13
2022-12-13T02:31:29.758Z,10.77
2022-12-13T02:32:39.506Z,19.35
2022-12-13T02:33:49.875Z,17.95
2022-12-13T02:34:57.699Z,17.05
2022-12-13T02:36:07.746Z,20.25
2022-12-13T02:37:18.573Z,17.02
2022-12-13T02:38:28.527Z,17.17
2022-12-13T02:39:33.882Z,14.70
2022-12-13T02:40:40.388Z,18.15
2022-12-13T02:41:48.419Z,17.08
2022-12-13T02:42:58.053Z,18.35
2022-12-13T02:44:05.787Z,18.20
2022-12-13T02:45:30.628Z,15.98
2022-12-13T02:46:36.185Z,15.98
2022-12-13T02:47:41.281Z,13.10
2022-12-13T02:48:43.888Z,14.38
2022-12-13T02:49:54.268Z,16.52
2022-12-13T02:50:58.217Z,15.23
2022-12-13T02:52:01.220Z,15.60
2022-12-13T02:53:04.969Z,14.55
2022-12-13T02:54:06.497Z,14.15
2022-12-13T02:55:12.045Z,13.55
2022-12-13T02:56:14.089Z,14.77
2022-12-13T02:57:33.289Z,16.52
2022-12-13T02:58:37.837Z,16.92
2022-12-13T02:59:40.350Z,17.00
2022-12-13T03:00:54.188Z,16.42
2022-12-13T03:02:11.220Z,13.82
2022-12-13T03:03:24.821Z,16.92
2022-12-13T03:04:40.547Z,17.58
2022-12-13T03:05:48.008Z,14.82
2022-12-13T03:07:04.921Z,16.77
2022-12-13T03:08:20.418Z,16.30
2022-12-13T03:09:31.911Z,17.23
2022-12-13T03:10:42.472Z,13.20
2022-12-13T03:11:58.759Z,16.75
2022-12-13T03:13:06.840Z,16.45
2022-12-13T03:14:11.372Z,15.40
2022-12-13T03:15:18.476Z,14.40
2022-12-13T03:16:27.213Z,16.48
2022-12-13T03:17:35.953Z,16.45
2022-12-13T03:18:39.614Z,17.27
2022-12-13T03:19:41.154Z,15.43
2022-12-13T03:20:47.055Z,15.90
2022-12-13T03:21:49.717Z,17.50
2022-12-13T03:22:51.530Z,17.98
2022-12-13T03:23:53.469Z,17.30
2022-12-13T03:24:55.250Z,21.02
2022-12-13T03:26:01.413Z,19.65
2022-12-13T03:27:02.974Z,13.88
2022-12-13T03:28:04.767Z,14.27
2022-12-13T03:29:06.637Z,16.60
2022-12-13T03:30:09.134Z,16.55
2022-12-13T03:31:10.875Z,17.65
2022-12-13T03:32:13.745Z,18.55
2022-12-13T03:33:15.494Z,15.10
2022-12-13T03:34:22.953Z,17.63
2022-12-13T03:35:25.749Z,13.43
2022-12-13T03:37:37.989Z,16.88
2022-12-13T03:38:40.267Z,17.73
2022-12-13T03:39:41.843Z,18.95
2022-12-13T03:40:43.789Z,20.45
2022-12-13T03:41:45.429Z,18.20
2022-12-13T03:42:47.580Z,13.73
2022-12-13T03:43:49.942Z,22.35
2022-12-13T03:44:51.489Z,15.00
2022-12-13T03:45:53.592Z,17.42
2022-12-13T03:46:55.131Z,14.52
2022-12-13T03:47:57.994Z,18.50
2022-12-13T03:48:59.561Z,21.27
2022-12-13T03:50:25.821Z,20.70
2022-12-13T03:52:24.387Z,20.50
2022-12-13T03:53:33.663Z,20.02
2022-12-13T03:54:35.868Z,19.95
2022-12-13T03:55:37.411Z,20.58
2022-12-13T03:56:38.933Z,19.08
2022-12-13T03:57:40.451Z,21.13
2022-12-13T03:58:42.271Z,17.75
2022-12-13T03:59:43.839Z,17.80
2022-12-13T04:00:45.599Z,19.25
2022-12-13T04:01:47.155Z,11.20
2022-12-13T04:02:48.805Z,11.43
2022-12-13T04:03:51.704Z,13.23
2022-12-13T04:04:53.248Z,16.05
2022-12-13T04:05:54.785Z,13.20
2022-12-13T04:06:56.267Z,11.48
2022-12-13T04:08:00.679Z,12.40
2022-12-13T04:09:02.718Z,17.60
2022-12-13T04:10:25.638Z,12.57
2022-12-13T04:11:26.662Z,11.85
2022-12-13T04:12:28.180Z,15.95
2022-12-13T04:13:29.672Z,16.77
2022-12-13T04:14:31.227Z,19.92
2022-12-13T04:15:32.840Z,12.05
2022-12-13T04:16:35.427Z,10.18
2022-12-13T04:17:36.972Z,18.38
2022-12-13T04:18:38.502Z,11.95
2022-12-13T04:19:41.344Z,12.25
2022-12-13T04:20:42.874Z,16.13
2022-12-13T04:21:44.378Z,14.50
2022-12-13T04:22:45.922Z,18.80
2022-12-13T04:23:47.452Z,16.20
2022-12-13T04:24:49.887Z,17.63
2022-12-13T04:25:51.542Z,18.75
2022-12-13T04:26:53.081Z,13.57
2022-12-13T04:27:54.594Z,12.00
2022-12-13T04:28:56.346Z,17.27
2022-12-13T04:29:57.898Z,9.77
2022-12-13T04:30:59.431Z,17.00
2022-12-13T04:32:00.969Z,19.48
2022-12-13T04:33:02.836Z,15.98
2022-12-13T04:34:34.952Z,13.02
2022-12-13T04:35:39.867Z,12.73
2022-12-13T04:36:41.373Z,22.20
2022-12-13T04:37:43.520Z,18.63
2022-12-13T04:38:45.181Z,12.95
2022-12-13T04:39:47.938Z,17.50
2022-12-13T04:40:49.747Z,13.32
2022-12-13T04:41:52.197Z,13.38
2022-12-13T04:42:54.398Z,15.93
2022-12-13T04:43:56.066Z,16.42
2022-12-13T04:44:57.598Z,14.00
2022-12-13T04:45:59.199Z,16.23
2022-12-13T04:47:01.487Z,12.43
2022-12-13T04:48:03.554Z,19.70
2022-12-13T04:49:05.113Z,12.88
2022-12-13T04:50:07.437Z,14.88
2022-12-13T04:51:10.346Z,15.75
2022-12-13T04:52:11.840Z,18.27
2022-12-13T04:53:14.421Z,13.70
2022-12-13T04:54:27.996Z,18.20
2022-12-13T04:55:38.243Z,15.38
2022-12-13T04:56:39.789Z,17.05
2022-12-13T04:57:41.347Z,14.25
2022-12-13T04:58:42.882Z,12.63
2022-12-13T04:59:44.437Z,21.40
2022-12-13T05:00:46.041Z,13.32
2022-12-13T05:01:47.603Z,13.55
2022-12-13T05:02:49.268Z,16.30
2022-12-13T05:03:51.469Z,19.70
2022-12-13T05:04:53.535Z,12.45
2022-12-13T05:05:55.757Z,13.30
2022-12-13T05:06:58.667Z,13.68
2022-12-13T05:08:00.225Z,14.20
2022-12-13T05:09:02.108Z,10.77
2022-12-13T05:10:04.165Z,14.43
2022-12-13T05:11:06.240Z,12.20
2022-12-13T05:12:22.096Z,15.38
2022-12-13T05:13:24.891Z,14.48
2022-12-13T05:14:26.403Z,9.15
2022-12-13T05:15:28.657Z,15.25
2022-12-13T05:16:31.379Z,13.45
2022-12-13T05:17:33.336Z,15.88
2022-12-13T05:18:36.043Z,10.13
2022-12-13T05:19:37.547Z,14.45
2022-12-13T05:20:39.459Z,12.43
2022-12-13T05:21:41.053Z,17.20
2022-12-13T05:22:43.951Z,19.73
2022-12-13T05:23:45.461Z,11.65
2022-12-13T05:24:46.972Z,16.23
2022-12-13T05:25:48.783Z,14.20
2022-12-13T05:26:51.289Z,19.35
2022-12-13T05:27:56.895Z,15.18
2022-12-13T05:28:59.146Z,12.60
2022-12-13T05:30:03.285Z,15.75
2022-12-13T05:31:22.545Z,21.33
2022-12-13T05:32:25.377Z,12.27
2022-12-13T05:33:27.113Z,16.95
2022-12-13T05:34:28.776Z,15.73
2022-12-13T05:35:31.840Z,15.63
2022-12-13T05:36:33.366Z,20.90
2022-12-13T05:37:35.045Z,13.07
2022-12-13T05:38:37.972Z,16.98
2022-12-13T05:39:39.513Z,14.57
2022-12-13T05:40:41.304Z,14.77
2022-12-13T05:41:42.937Z,14.13
2022-12-13T05:42:44.472Z,13.48
2022-12-13T05:43:46.115Z,22.50
2022-12-13T05:44:47.677Z,12.13
2022-12-13T05:45:49.372Z,14.75
2022-12-13T05:46:50.999Z,15.43
2022-12-13T05:47:52.540Z,15.05
2022-12-13T05:48:54.096Z,9.90
2022-12-13T05:49:55.614Z,16.83
2022-12-13T05:51:10.888Z,13.52
2022-12-13T05:52:16.896Z,16.63
2022-12-13T05:53:30.622Z,15.65
2022-12-13T05:54:34.093Z,18.02
2022-12-13T05:55:37.673Z,18.88
2022-12-13T05:56:39.176Z,13.02
2022-12-13T05:57:40.714Z,13.93
2022-12-13T05:58:42.301Z,11.32
2022-12-13T05:59:43.859Z,14.02
2022-12-13T06:00:45.415Z,13.82
2022-12-13T06:01:46.975Z,13.90
2022-12-13T06:02:48.614Z,12.02
2022-12-13T06:03:50.582Z,15.15
2022-12-13T06:04:52.200Z,14.55
2022-12-13T06:05:53.719Z,15.30
2022-12-13T06:06:55.278Z,10.45
2022-12-13T06:07:58.182Z,11.70
2022-12-13T06:09:00.237Z,15.98
2022-12-13T06:10:10.142Z,14.80
2022-12-13T06:11:12.677Z,10.45
2022-12-13T06:12:34.522Z,16.85
2022-12-13T06:13:50.096Z,13.75
2022-12-13T06:14:52.692Z,11.95
2022-12-13T06:16:06.480Z,11.25
2022-12-13T06:17:24.174Z,16.38
2022-12-13T06:18:25.953Z,17.75
2022-12-13T06:19:27.706Z,16.13
2022-12-13T06:20:29.301Z,12.18
2022-12-13T06:21:41.258Z,15.25
2022-12-13T06:22:47.122Z,15.52
2022-12-13T06:23:48.635Z,17.13
2022-12-13T06:24:50.189Z,16.40
2022-12-13T06:25:53.050Z,13.43
2022-12-13T06:26:54.655Z,16.50
2022-12-13T06:27:56.184Z,20.23
2022-12-13T06:28:57.795Z,15.32
2022-12-13T06:30:02.446Z,14.88
2022-12-13T06:31:05.482Z,16.05
2022-12-13T06:32:07.051Z,13.45
2022-12-13T06:33:08.694Z,15.68
2022-12-13T06:34:14.346Z,15.25
2022-12-13T06:35:28.191Z,14.98
2022-12-13T06:36:32.448Z,10.63
2022-12-13T06:37:34.181Z,12.70
2022-12-13T06:38:43.519Z,17.67
2022-12-13T06:39:45.382Z,15.18
2022-12-13T06:40:46.876Z,19.95
2022-12-13T06:41:49.742Z,16.90
2022-12-13T06:42:51.234Z,19.25
2022-12-13T06:43:52.746Z,18.95
2022-12-13T06:44:56.107Z,15.43
2022-12-13T06:45:57.948Z,18.52
2022-12-13T06:47:11.896Z,20.15
2022-12-13T06:48:18.829Z,22.17
2022-12-13T06:49:21.760Z,13.32
2022-12-13T06:50:23.936Z,13.98
2022-12-13T06:51:32.624Z,13.65
2022-12-13T06:52:34.921Z,22.77
2022-12-13T06:53:38.065Z,15.77
2022-12-13T06:54:39.956Z,15.50
2022-12-13T06:55:41.486Z,14.93
2022-12-13T06:56:43.001Z,21.25
2022-12-13T06:57:45.876Z,20.10
2022-12-13T06:58:47.368Z,20.17
2022-12-13T06:59:48.907Z,25.33
2022-12-13T07:00:50.453Z,17.33
2022-12-13T07:01:52.035Z,19.30
2022-12-13T07:02:54.107Z,12.98
2022-12-13T07:03:56.105Z,17.23
2022-12-13T07:04:57.759Z,20.17
2022-12-13T07:05:59.776Z,11.45
2022-12-13T07:07:02.347Z,21.83
2022-12-13T07:08:04.491Z,17.83
2022-12-13T07:09:06.064Z,16.25
2022-12-13T07:10:12.562Z,18.65
2022-12-13T07:11:25.645Z,14.57
2022-12-13T07:12:27.188Z,16.52
2022-12-13T07:13:30.109Z,14.90
2022-12-13T07:14:31.635Z,15.52
2022-12-13T07:15:42.744Z,14.85
2022-12-13T07:16:44.267Z,15.18
2022-12-13T07:17:49.193Z,12.75
2022-12-13T07:18:54.109Z,12.63
2022-12-13T07:20:06.035Z,11.43
2022-12-13T07:21:09.940Z,15.05
2022-12-13T07:22:23.568Z,15.15
2022-12-13T07:23:25.116Z,18.63
2022-12-13T07:24:26.648Z,17.30
2022-12-13T07:25:29.610Z,14.63
2022-12-13T07:26:31.454Z,13.23
2022-12-13T07:27:33.460Z,16.17
2022-12-13T07:28:37.134Z,20.40
2022-12-13T07:29:38.723Z,15.77
2022-12-13T07:30:41.521Z,16.85
2022-12-13T07:31:43.352Z,14.52
2022-12-13T07:32:46.456Z,17.95
2022-12-13T07:33:47.969Z,14.68
2022-12-13T07:34:49.480Z,14.18
2022-12-13T07:35:55.330Z,15.25
2022-12-13T07:37:00.002Z,11.88
2022-12-13T07:38:01.571Z,16.42
2022-12-13T07:39:03.118Z,19.48
2022-12-13T07:40:05.450Z,14.73
2022-12-13T07:41:07.281Z,18.70
2022-12-13T07:42:08.829Z,18.55
2022-12-13T07:43:10.381Z,12.23
2022-12-13T07:44:13.247Z,12.77
2022-12-13T07:45:14.882Z,15.90
2022-12-13T07:46:16.452Z,13.88
2022-12-13T07:47:18.023Z,15.70
2022-12-13T07:48:19.621Z,13.10
2022-12-13T07:49:21.150Z,11.10
2022-12-13T07:50:25.125Z,17.08
2022-12-13T07:51:33.689Z,14.35
2022-12-13T07:52:36.657Z,21.42
2022-12-13T07:53:38.763Z,17.45
2022-12-13T07:54:40.296Z,17.65
2022-12-13T07:55:41.938Z,15.80
2022-12-13T07:56:43.599Z,16.05
2022-12-13T07:57:45.134Z,14.30
2022-12-13T07:58:46.650Z,14.20
2022-12-13T07:59:49.533Z,13.95
2022-12-13T08:00:51.091Z,15.73
2022-12-13T08:01:52.759Z,13.15
2022-12-13T08:02:54.323Z,14.75
2022-12-13T08:03:55.843Z,17.45
2022-12-13T08:04:57.436Z,17.27
2022-12-13T08:07:20.233Z,12.52
2022-12-13T08:08:21.826Z,13.20
2022-12-13T08:09:32.502Z,15.75
2022-12-13T08:10:34.103Z,14.52
2022-12-13T08:11:35.979Z,13.50
2022-12-13T08:12:37.767Z,14.45
2022-12-13T08:13:39.621Z,13.95
2022-12-13T08:14:41.141Z,16.52
2022-12-13T08:15:44.025Z,17.90
2022-12-13T08:16:45.662Z,12.65
2022-12-13T08:17:47.259Z,16.70
2022-12-13T08:20:05.108Z,19.33
2022-12-13T08:21:30.571Z,13.05
2022-12-13T08:22:29.708Z,15.38
2022-12-13T08:23:43.703Z,15.73
2022-12-13T08:28:45.516Z,20.83
2022-12-13T08:29:47.033Z,17.90
2022-12-13T08:31:38.100Z,18.45
2022-12-13T08:34:37.991Z,16.70
2022-12-13T08:37:36.137Z,19.13
2022-12-13T08:40:34.869Z,18.85
2022-12-13T08:43:33.169Z,17.77
2022-12-13T08:44:34.670Z,17.20
2022-12-13T08:45:36.199Z,15.35
2022-12-13T08:46:38.024Z,13.73
2022-12-13T08:47:41.735Z,14.77
2022-12-13T08:48:43.978Z,15.18
2022-12-13T08:49:47.873Z,10.25
2022-12-13T08:52:52.977Z,16.23
2022-12-13T08:53:54.455Z,17.55
2022-12-13T08:55:53.234Z,16.75
2022-12-13T08:56:54.747Z,12.50
2022-12-13T08:59:59.602Z,20.77
2022-12-13T09:01:01.177Z,17.58
2022-12-13T09:02:05.157Z,15.30
2022-12-13T09:03:09.996Z,14.60
2022-12-13T09:04:11.896Z,13.20
2022-12-13T09:05:33.921Z,22.42
2022-12-13T09:06:36.465Z,11.68
2022-12-13T09:07:38.296Z,14.70
2022-12-13T09:08:40.952Z,18.60
2022-12-13T09:09:42.518Z,14.13
2022-12-13T09:10:44.479Z,16.42
2022-12-13T09:11:45.947Z,14.55
2022-12-13T09:12:47.421Z,14.20
2022-12-13T09:13:49.263Z,16.85
2022-12-13T09:14:50.769Z,17.27
2022-12-13T09:15:52.394Z,18.85
2022-12-13T09:16:54.094Z,16.42
2022-12-13T09:18:05.698Z,16.85
2022-12-13T09:19:24.934Z,18.73
2022-12-13T09:20:30.225Z,14.37
2022-12-13T09:21:32.317Z,14.50
2022-12-13T09:22:34.343Z,16.67
2022-12-13T09:23:36.325Z,12.40
2022-12-13T09:24:50.206Z,13.80
2022-12-13T09:25:55.952Z,16.40
2022-12-13T09:26:57.628Z,19.13
2022-12-13T09:27:59.431Z,16.08
2022-12-13T09:29:10.546Z,15.57
2022-12-13T09:30:13.493Z,15.27
2022-12-13T09:31:16.867Z,15.88
2022-12-13T09:32:18.364Z,12.00
2022-12-13T09:33:30.460Z,15.07
2022-12-13T09:34:35.447Z,14.43
2022-12-13T09:35:39.181Z,19.73
2022-12-13T09:36:40.733Z,16.58
2022-12-13T09:37:45.910Z,17.08
2022-12-13T09:38:47.972Z,15.68
2022-12-13T09:39:55.451Z,16.05
2022-12-13T09:41:00.262Z,15.40
2022-12-13T09:42:10.402Z,17.52
2022-12-13T09:43:21.914Z,11.15
2022-12-13T09:44:32.584Z,11.98
2022-12-13T09:45:42.848Z,9.35
2022-12-13T09:46:46.879Z,14.65
2022-12-13T09:47:50.548Z,14.70
2022-12-13T09:49:02.041Z,12.10
2022-12-13T09:50:08.265Z,15.63
2022-12-13T09:51:29.898Z,13.88
2022-12-13T09:52:42.536Z,15.98
2022-12-13T09:53:46.791Z,16.08
2022-12-13T09:54:50.117Z,19.08
2022-12-13T09:55:52.021Z,18.15
2022-12-13T09:56:55.401Z,12.38
2022-12-13T09:57:58.434Z,10.60
2022-12-13T09:58:59.945Z,14.45
2022-12-13T10:00:05.605Z,11.30
2022-12-13T10:01:07.297Z,11.05
2022-12-13T10:02:17.345Z,12.18
2022-12-13T10:03:21.088Z,13.48
2022-12-13T10:04:23.194Z,12.80
2022-12-13T10:05:34.270Z,12.77
2022-12-13T10:06:41.822Z,13.43
2022-12-13T10:07:43.670Z,10.25
2022-12-13T10:08:47.838Z,12.43
2022-12-13T10:09:55.664Z,12.25
2022-12-13T10:10:57.541Z,16.42
2022-12-13T10:11:59.013Z,10.15
2022-12-13T10:13:08.150Z,10.10
2022-12-13T10:14:15.500Z,13.23
2022-12-13T10:15:22.313Z,15.75
2022-12-13T10:16:28.158Z,17.15
2022-12-13T10:17:40.077Z,11.88
2022-12-13T10:18:43.898Z,18.98
2022-12-13T10:19:47.233Z,15.50
2022-12-13T10:20:49.851Z,18.35
2022-12-13T10:21:52.754Z,14.63
2022-12-13T10:23:31.521Z,14.48
2022-12-13T10:25:47.067Z,16.92
2022-12-13T10:26:53.194Z,9.60
2022-12-13T10:27:54.719Z,11.10
2022-12-13T10:29:02.715Z,15.85
2022-12-13T10:30:07.766Z,15.35
2022-12-13T10:31:16.778Z,12.60
2022-12-13T10:32:19.534Z,11.68
2022-12-13T10:33:24.934Z,13.43
2022-12-13T10:34:29.609Z,14.85
2022-12-13T10:35:32.821Z,13.10
2022-12-13T10:36:35.958Z,10.00
2022-12-13T10:37:38.845Z,14.23
2022-12-13T10:38:42.319Z,15.38
2022-12-13T10:39:44.012Z,9.45
2022-12-13T10:40:45.575Z,16.95
2022-12-13T10:41:47.212Z,11.55
2022-12-13T10:43:06.447Z,12.40
2022-12-13T10:44:23.739Z,20.83
2022-12-13T10:45:25.248Z,19.05
2022-12-13T10:46:26.807Z,19.25
2022-12-13T10:47:28.480Z,18.40
2022-12-13T10:48:38.640Z,16.42
2022-12-13T10:49:50.764Z,13.13
2022-12-13T10:51:02.626Z,16.83
2022-12-13T10:52:04.876Z,17.35
2022-12-13T10:53:17.878Z,18.25
2022-12-13T10:54:28.960Z,18.20
2022-12-13T10:55:40.070Z,16.98
2022-12-13T10:56:46.731Z,16.95
2022-12-13T10:57:50.886Z,11.98
2022-12-13T10:59:15.163Z,13.05
2022-12-13T11:00:33.476Z,13.77
2022-12-13T11:01:35.428Z,16.55
2022-12-13T11:02:38.831Z,16.80
2022-12-13T11:03:40.376Z,9.82
2022-12-13T11:04:41.868Z,15.25
2022-12-13T11:05:43.410Z,11.25
2022-12-13T11:06:47.053Z,13.43
2022-12-13T11:07:48.543Z,9.02
2022-12-13T11:08:52.995Z,9.75
2022-12-13T11:09:54.628Z,13.95
2022-12-13T11:10:58.042Z,12.80
2022-12-13T11:12:02.134Z,10.98
2022-12-13T11:13:06.042Z,13.85
2022-12-13T11:14:18.504Z,11.07
2022-12-13T11:15:35.772Z,12.93
2022-12-13T11:16:41.472Z,13.25
2022-12-13T11:17:47.836Z,9.85
2022-12-13T11:18:52.146Z,14.23
2022-12-13T11:19:56.095Z,18.77
2022-12-13T11:21:00.535Z,16.55
2022-12-13T11:22:02.218Z,13.60
2022-12-13T11:23:07.221Z,10.95
2022-12-13T11:24:23.174Z,9.63
2022-12-13T11:25:30.497Z,12.82
2022-12-13T11:26:35.214Z,11.90
2022-12-13T11:27:49.680Z,11.75
2022-12-13T11:29:11.046Z,13.95
2022-12-13T11:30:19.844Z,12.57
2022-12-13T11:31:29.687Z,13.75
2022-12-13T11:32:46.550Z,12.68
2022-12-13T11:33:58.280Z,12.55
2022-12-13T11:35:07.955Z,12.23
2022-12-13T11:36:22.439Z,10.93
2022-12-13T11:37:30.259Z,13.57
2022-12-13T11:38:35.975Z,11.23
2022-12-13T11:39:44.674Z,13.70
2022-12-13T11:40:51.450Z,18.80
2022-12-13T11:41:58.229Z,16.90
2022-12-13T11:43:05.459Z,14.98
2022-12-13T11:44:14.937Z,12.35
2022-12-13T11:45:23.012Z,12.65
2022-12-13T11:46:34.872Z,10.68
2022-12-13T11:47:46.256Z,13.90
2022-12-13T11:48:53.091Z,13.52
2022-12-13T11:49:56.871Z,14.73
2022-12-13T11:51:00.765Z,17.25
2022-12-13T11:52:07.342Z,15.65
2022-12-13T11:53:26.582Z,13.18
2022-12-13T11:54:38.015Z,12.27
2022-12-13T11:55:47.197Z,18.38
2022-12-13T11:56:50.915Z,12.27
2022-12-13T11:58:07.560Z,13.70
2022-12-13T11:59:26.554Z,12.70
2022-12-13T12:00:34.801Z,12.00
2022-12-13T12:02:04.983Z,13.38
2022-12-13T12:03:17.240Z,10.10
2022-12-13T12:04:28.886Z,14.75
2022-12-13T12:05:34.208Z,15.75
2022-12-13T12:06:40.876Z,13.75
2022-12-13T12:08:12.845Z,10.10
2022-12-13T12:09:13.778Z,19.10
2022-12-13T12:10:29.942Z,13.57
2022-12-13T12:11:38.360Z,16.65
2022-12-13T12:12:42.848Z,14.55
2022-12-13T12:13:50.838Z,14.77
2022-12-13T12:14:58.103Z,15.65
2022-12-13T12:16:13.374Z,14.73
2022-12-13T12:17:18.108Z,16.63
2022-12-13T12:18:19.596Z,16.02
2022-12-13T12:19:23.240Z,13.35
2022-12-13T12:20:44.533Z,16.58
2022-12-13T12:22:16.432Z,19.00
2022-12-13T12:24:32.717Z,12.73
2022-12-13T12:25:42.629Z,15.63
2022-12-13T12:26:56.736Z,17.15
2022-12-13T12:28:07.067Z,14.45
2022-12-13T12:29:44.383Z,15.98
2022-12-13T12:30:53.777Z,15.65
2022-12-13T12:32:05.739Z,20.05
2022-12-13T12:33:17.956Z,16.33
2022-12-13T12:34:31.838Z,18.35
2022-12-13T12:35:55.042Z,15.95
2022-12-13T12:37:09.363Z,17.52
2022-12-13T12:38:37.504Z,14.13
2022-12-13T12:39:58.641Z,15.68
2022-12-13T12:41:18.059Z,16.08
2022-12-13T12:43:13.462Z,20.40
2022-12-13T12:44:16.859Z,15.27
2022-12-13T12:45:55.923Z,18.77
2022-12-13T12:48:56.931Z,14.35
2022-12-13T12:50:32.695Z,14.57
2022-12-13T12:51:45.424Z,18.35
2022-12-13T12:52:59.931Z,11.85
2022-12-13T12:54:16.007Z,13.50
2022-12-13T12:55:28.211Z,15.95
2022-12-13T12:56:40.894Z,19.73
2022-12-13T12:57:57.319Z,16.85
2022-12-13T12:59:11.948Z,18.38
2022-12-13T13:00:16.736Z,11.93
2022-12-13T13:01:37.676Z,17.35
2022-12-13T13:02:54.727Z,16.15
2022-12-13T13:04:01.449Z,11.85
2022-12-13T13:05:14.700Z,15.20
2022-12-13T13:06:20.776Z,16.98
2022-12-13T13:07:26.929Z,15.50
2022-12-13T13:08:35.868Z,17.27
2022-12-13T13:09:38.862Z,12.85
2022-12-13T13:10:42.301Z,18.92
2022-12-13T13:11:57.457Z,20.50
2022-12-13T13:13:11.712Z,18.13
2022-12-13T13:14:32.060Z,16.10
2022-12-13T13:15:56.617Z,19.02
2022-12-13T13:16:59.669Z,19.65
2022-12-13T13:18:01.180Z,19.67
2022-12-13T13:19:03.471Z,20.42
2022-12-13T13:20:17.461Z,15.88
2022-12-13T13:21:27.098Z,14.68
2022-12-13T13:22:32.180Z,17.35
2022-12-13T13:23:40.755Z,15.52
2022-12-13T13:26:23.820Z,15.90
2022-12-13T13:27:40.596Z,18.58
2022-12-13T13:28:43.478Z,20.33
2022-12-13T13:29:45.489Z,12.30
2022-12-13T13:31:02.780Z,13.10
2022-12-13T13:32:28.493Z,16.30
2022-12-13T13:33:44.802Z,12.27
2022-12-13T13:34:47.597Z,12.73
2022-12-13T13:35:49.208Z,13.02
2022-12-13T13:36:50.878Z,15.45
2022-12-13T13:37:52.407Z,18.48
2022-12-13T13:38:54.247Z,18.92
2022-12-13T13:39:58.775Z,16.80
2022-12-13T13:41:12.200Z,18.70
2022-12-13T13:42:19.568Z,14.88
2022-12-13T13:43:32.232Z,16.05
2022-12-13T13:44:55.198Z,14.95
2022-12-13T13:45:59.602Z,13.85
2022-12-13T13:47:11.035Z,17.27
2022-12-13T13:49:31.648Z,14.20
2022-12-13T13:51:21.320Z,14.77
2022-12-13T13:52:25.362Z,13.77
2022-12-13T13:54:01.177Z,10.23
2022-12-13T13:55:28.422Z,16.15
2022-12-13T13:56:43.661Z,17.42
2022-12-13T13:58:21.463Z,15.88
2022-12-13T14:00:09.155Z,12.68
2022-12-13T14:01:41.870Z,15.73
2022-12-13T14:03:35.105Z,16.80
2022-12-13T14:04:58.693Z,13.23
2022-12-13T14:06:38.473Z,22.02
2022-12-13T14:08:20.624Z,13.88
2022-12-13T14:10:00.449Z,16.15
2022-12-13T14:11:20.636Z,16.20
2022-12-13T14:13:06.005Z,19.35
2022-12-13T14:14:53.252Z,13.63
2022-12-13T14:16:36.040Z,13.93
2022-12-13T14:18:12.878Z,14.80
2022-12-13T14:19:42.331Z,17.27
2022-12-13T14:20:56.138Z,16.20
2022-12-13T14:22:17.285Z,17.88
2022-12-13T14:23:30.268Z,18.75
2022-12-13T14:24:45.926Z,19.75
2022-12-13T14:26:06.897Z,17.02
2022-12-13T14:27:34.284Z,14.13
2022-12-13T14:28:46.313Z,13.95
2022-12-13T14:29:57.817Z,16.60
2022-12-13T14:31:00.530Z,18.52
2022-12-13T14:32:09.124Z,15.43
2022-12-13T14:33:29.200Z,16.25
2022-12-13T14:34:32.805Z,17.90
2022-12-13T14:35:34.325Z,17.45
2022-12-13T14:36:36.741Z,18.10
2022-12-13T14:37:38.292Z,13.52
2022-12-13T14:38:39.830Z,17.60
2022-12-13T14:39:44.443Z,12.43
2022-12-13T14:40:50.448Z,10.82
2022-12-13T14:41:56.911Z,19.48
2022-12-13T14:42:59.462Z,19.70
2022-12-13T14:44:14.207Z,16.80
2022-12-13T14:45:21.747Z,11.98
2022-12-13T14:46:23.293Z,18.92
2022-12-13T14:47:27.301Z,15.40
2022-12-13T14:48:30.560Z,13.18
2022-12-13T14:49:34.909Z,15.77